Time;durP1;ratioP1;P1;durP2;ratioP2;P2;SDS_P1;SDS_P2;PMS_P1;PMS_P2;Temp;Humidity;BMP_temperature;BMP_pressure;BME280_temperature;BME280_humidity;BME280_pressure;Samples;Min_cycle;Max_cycle;Signal;HPM_P1;HPM_P2
2021/03/16 00:00:45;;;;;;;273.30;148.50;;;;;;;-1.60;74.21;98170.08;124072;1102;65013;-81
2021/03/16 00:03:14;;;;;;;271.85;151.90;;;;;;;-1.66;74.69;98173.75;123819;1102;64969;-81
2021/03/16 00:05:40;;;;;;;258.40;137.87;;;;;;;-1.70;74.27;98176.49;123814;1102;64908;-82
2021/03/16 00:08:06;;;;;;;258.17;142.07;;;;;;;-1.81;74.38;98177.67;123863;1102;64978;-82
2021/03/16 00:10:33;;;;;;;274.60;148.20;;;;;;;-1.87;74.11;98177.86;123875;1102;64895;-81
2021/03/16 00:12:59;;;;;;;253.07;140.60;;;;;;;-1.89;74.73;98174.44;123790;1102;64978;-82
2021/03/16 00:15:27;;;;;;;278.93;145.20;;;;;;;-1.95;74.33;98182.44;123454;1102;64942;-81
2021/03/16 00:17:54;;;;;;;268.50;153.45;;;;;;;-1.97;75.03;98184.26;123853;1102;64907;-81
2021/03/16 00:20:20;;;;;;;277.87;154.27;;;;;;;-2.00;74.94;98181.74;123446;1102;65367;-81
2021/03/16 00:22:46;;;;;;;304.87;164.27;;;;;;;-2.03;74.92;98181.81;123897;1102;64934;-81
2021/03/16 00:25:13;;;;;;;293.73;161.30;;;;;;;-2.05;75.41;98183.62;123845;1102;65014;-82
2021/03/16 00:27:39;;;;;;;302.50;164.27;;;;;;;-1.97;75.69;98189.48;123825;1102;64933;-82
2021/03/16 00:30:07;;;;;;;325.37;175.43;;;;;;;-1.94;75.16;98186.77;123809;1102;64875;-82
2021/03/16 00:32:33;;;;;;;352.87;179.57;;;;;;;-1.94;75.92;98184.16;123872;1102;64978;-82
2021/03/16 00:34:59;;;;;;;295.23;161.33;;;;;;;-1.92;74.94;98184.98;123845;1102;64908;-82
2021/03/16 00:37:26;;;;;;;341.02;169.95;;;;;;;-2.01;75.20;98183.47;123815;1101;64883;-82
2021/03/16 00:39:53;;;;;;;298.37;158.33;;;;;;;-2.02;75.66;98189.61;123796;1102;65096;-82
2021/03/16 00:42:19;;;;;;;326.60;169.10;;;;;;;-2.05;75.03;98196.69;123476;1105;64981;-81
2021/03/16 00:44:46;;;;;;;324.60;166.07;;;;;;;-2.05;75.96;98197.53;123810;1102;64939;-81
2021/03/16 00:47:12;;;;;;;304.83;160.17;;;;;;;-2.07;75.58;98195.87;123831;1102;64860;-81
2021/03/16 00:49:38;;;;;;;312.65;161.25;;;;;;;-2.07;76.01;98194.11;123823;1102;64889;-81
2021/03/16 00:52:05;;;;;;;308.00;158.75;;;;;;;-2.06;75.44;98197.56;123826;1102;65071;-81
2021/03/16 00:54:31;;;;;;;308.57;156.83;;;;;;;-1.99;76.13;98196.50;123893;1102;64957;-81
2021/03/16 00:56:58;;;;;;;309.93;160.17;;;;;;;-2.01;75.87;98195.67;123794;1102;64992;-81
2021/03/16 00:59:24;;;;;;;324.20;167.07;;;;;;;-2.02;76.00;98199.20;123866;1102;64934;-82
2021/03/16 01:01:51;;;;;;;318.40;162.73;;;;;;;-2.04;75.56;98196.63;123797;1102;65265;-81
2021/03/16 01:04:18;;;;;;;272.90;151.55;;;;;;;-2.04;75.21;98194.02;123843;1101;65000;-81
2021/03/16 01:06:45;;;;;;;299.10;159.80;;;;;;;-2.12;75.18;98190.77;123859;1101;64870;-81
2021/03/16 01:09:12;;;;;;;311.03;164.50;;;;;;;-2.07;76.00;98190.64;123845;1102;64917;-81
2021/03/16 01:11:38;;;;;;;303.25;157.65;;;;;;;-2.00;75.70;98194.80;123814;1102;64968;-81
2021/03/16 01:14:08;;;;;;;308.97;155.10;;;;;;;-2.04;75.92;98195.77;123852;1102;64908;-81
2021/03/16 01:16:34;;;;;;;;;;;;;;;-2.06;75.72;98194.95;123876;1101;64885;-81
2021/03/16 01:19:01;;;;;;;308.07;150.03;;;;;;;-2.10;75.29;98204.64;123818;1102;65429;-81
2021/03/16 01:21:28;;;;;;;288.53;146.83;;;;;;;-2.16;75.16;98196.97;123788;1102;64888;-81
2021/03/16 01:23:55;;;;;;;299.10;152.17;;;;;;;-2.11;75.40;98195.08;123783;1102;65039;-82
2021/03/16 01:26:21;;;;;;;296.47;149.37;;;;;;;-2.06;75.87;98195.80;123854;1102;64907;-81
2021/03/16 01:28:48;;;;;;;293.95;154.42;;;;;;;-2.05;75.84;98194.08;123873;1102;65001;-81
2021/03/16 01:31:14;;;;;;;291.87;147.30;;;;;;;-2.05;75.29;98191.47;123793;1102;65282;-81
2021/03/16 01:33:41;;;;;;;295.30;146.60;;;;;;;-2.08;75.87;98195.02;123451;1105;64978;-80
2021/03/16 01:36:07;;;;;;;288.00;148.60;;;;;;;-2.11;75.58;98196.84;123860;1102;64885;-81
2021/03/16 01:38:34;;;;;;;275.60;142.03;;;;;;;-2.14;75.50;98194.32;123821;1102;64934;-82
2021/03/16 01:41:00;;;;;;;267.20;139.07;;;;;;;-2.14;75.34;98195.17;123491;1102;64973;-81
2021/03/16 01:43:32;;;;;;;300.77;154.07;;;;;;;-2.13;75.69;98193.41;123847;1102;64879;-81
2021/03/16 01:45:59;;;;;;;280.85;146.85;;;;;;;-2.13;75.64;98189.08;123856;1102;64885;-81
2021/03/16 01:48:29;;;;;;;279.07;149.23;;;;;;;-2.13;75.40;98193.41;123832;1102;64886;-82
2021/03/16 01:50:56;;;;;;;276.40;146.77;;;;;;;-2.08;76.10;98197.63;123816;1102;64950;-82
2021/03/16 01:53:23;;;;;;;283.57;150.30;;;;;;;-2.01;76.33;98193.91;123785;1102;64995;-82
2021/03/16 01:55:51;;;;;;;260.63;151.23;;;;;;;-1.82;76.81;98191.64;123823;1102;64898;-82
2021/03/16 01:58:17;;;;;;;270.87;155.03;;;;;;;-1.67;76.43;98199.90;123858;1102;64917;-81
2021/03/16 02:00:44;;;;;;;266.83;150.53;;;;;;;-1.60;76.76;98194.44;123826;1102;64805;-82
2021/03/16 02:03:13;;;;;;;263.07;148.63;;;;;;;-1.55;75.85;98196.92;123818;1101;65364;-82
2021/03/16 02:05:41;;;;;;;246.85;142.85;;;;;;;-1.56;76.32;98195.19;123805;1102;65033;-82
2021/03/16 02:08:14;;;;;;;256.37;141.03;;;;;;;-1.61;75.82;98189.25;123837;1102;64907;-81
2021/03/16 02:10:54;;;;;;;260.50;144.83;;;;;;;-1.62;76.08;98204.08;123785;1102;64902;-81
2021/03/16 02:13:31;;;;;;;270.43;150.40;;;;;;;-1.70;76.59;98207.84;123786;1102;64889;-81
2021/03/16 02:16:03;;;;;;;256.93;147.53;;;;;;;-1.72;76.62;98189.59;123815;1102;64831;-81
2021/03/16 02:18:36;;;;;;;268.97;150.30;;;;;;;-1.72;76.44;98193.96;123843;1102;65075;-81
2021/03/16 02:21:09;;;;;;;265.63;149.27;;;;;;;-1.73;75.83;98194.87;123785;1102;64987;-81
2021/03/16 02:24:04;;;;;;;269.67;149.90;;;;;;;-1.72;75.91;98186.97;123813;1101;64908;-81
2021/03/16 02:26:42;;;;;;;274.30;155.07;;;;;;;-1.69;76.80;98196.47;123819;1102;64882;-81
2021/03/16 02:29:23;;;;;;;276.40;149.40;;;;;;;-1.72;76.04;98200.03;123776;1101;64918;-81
2021/03/16 02:31:59;;;;;;;281.63;151.90;;;;;;;-1.72;76.78;98205.26;123815;1102;64832;-81
2021/03/16 02:34:26;;;;;;;273.43;149.77;;;;;;;-1.71;76.08;98195.66;123870;1101;64910;-81
2021/03/16 02:36:54;;;;;;;285.97;153.77;;;;;;;-1.73;76.09;98190.50;123781;1102;64969;-82
2021/03/16 02:39:22;;;;;;;284.40;151.33;;;;;;;-1.72;76.62;98196.57;123879;1102;64825;-82
2021/03/16 02:41:51;;;;;;;281.70;151.07;;;;;;;-1.75;76.84;98196.67;123842;1102;65330;-82
2021/03/16 02:44:18;;;;;;;;;;;;;;;-1.75;76.65;98191.45;123870;1102;64885;-82
2021/03/16 02:46:48;;;;;;;277.90;146.83;;;;;;;-1.78;76.41;98195.85;123870;1102;65004;-82
2021/03/16 02:49:17;;;;;;;258.73;143.33;;;;;;;-1.83;76.49;98205.58;123850;1102;64908;-81
2021/03/16 02:51:45;;;;;;;285.97;146.10;;;;;;;-1.91;77.13;98209.33;123833;1102;64866;-82
2021/03/16 02:54:12;;;;;;;292.30;153.90;;;;;;;-1.97;76.81;98219.93;123865;1102;64892;-81
2021/03/16 02:56:41;;;;;;;260.53;146.60;;;;;;;-2.00;77.67;98218.30;123786;1102;64917;-81
2021/03/16 02:59:10;;;;;;;273.57;152.37;;;;;;;-1.94;76.98;98215.50;123823;1101;64908;-81
2021/03/16 03:01:37;;;;;;;274.17;151.23;;;;;;;-1.92;77.11;98229.37;123859;1102;64907;-81
2021/03/16 03:04:09;;;;;;;288.93;156.73;;;;;;;-1.92;77.35;98221.53;123789;1102;64886;-82
2021/03/16 03:06:39;;;;;;;281.47;149.60;;;;;;;-1.90;77.21;98211.88;123846;1102;64889;-81
2021/03/16 03:09:06;;;;;;;272.67;150.13;;;;;;;-1.87;76.99;98216.16;123807;1102;64857;-81
2021/03/16 03:11:34;;;;;;;275.43;147.93;;;;;;;-1.84;76.85;98222.16;123813;1102;64829;-81
2021/03/16 03:14:02;;;;;;;267.73;145.47;;;;;;;-1.85;77.36;98217.82;123862;1102;64917;-82
2021/03/16 03:16:29;;;;;;;267.03;145.03;;;;;;;-1.85;76.87;98215.21;123863;1102;64882;-81
2021/03/16 03:18:56;;;;;;;269.53;142.73;;;;;;;-1.89;76.48;98223.20;123855;1102;64889;-81
2021/03/16 03:21:30;;;;;;;271.40;141.70;;;;;;;-1.95;77.27;98216.38;123847;1102;64988;-81
2021/03/16 03:24:03;;;;;;;264.95;142.90;;;;;;;-2.00;76.72;98220.91;123838;1102;65021;-82
2021/03/16 03:26:56;;;;;;;264.63;146.23;;;;;;;-2.05;77.43;98228.86;123551;1102;65288;-82
2021/03/16 03:29:24;;;;;;;271.63;143.57;;;;;;;-2.10;76.81;98217.70;123788;1102;64901;-82
2021/03/16 03:31:52;;;;;;;297.10;149.65;;;;;;;-2.11;77.12;98228.16;123912;1102;64889;-82
2021/03/16 03:34:19;;;;;;;262.20;145.53;;;;;;;-2.10;77.10;98222.06;123832;1102;65001;-82
2021/03/16 03:36:52;;;;;;;270.60;147.57;;;;;;;-2.06;77.67;98226.28;123814;1102;64944;-81
2021/03/16 03:39:21;;;;;;;281.93;146.63;;;;;;;-2.09;77.12;98226.38;123788;1102;64927;-81
2021/03/16 03:41:53;;;;;;;270.40;151.95;;;;;;;-2.13;77.79;98241.28;123817;1102;64885;-81
2021/03/16 03:44:24;;;;;;;275.75;148.85;;;;;;;-2.18;77.71;98239.70;123814;1102;64889;-81
2021/03/16 03:46:51;;;;;;;272.70;145.97;;;;;;;-2.24;78.09;98246.80;123770;1102;65074;-82
2021/03/16 03:49:20;;;;;;;285.77;150.97;;;;;;;-2.22;78.13;98241.52;123840;1102;64984;-81
2021/03/16 03:51:49;;;;;;;274.83;149.47;;;;;;;-2.22;77.93;98249.34;123910;1102;65393;-81
2021/03/16 03:54:18;;;;;;;282.68;146.62;;;;;;;-2.25;78.25;98252.90;123837;1102;64966;-81
2021/03/16 03:56:45;;;;;;;273.90;147.33;;;;;;;-2.25;77.72;98244.22;123888;1102;64881;-82
2021/03/16 03:59:14;;;;;;;298.97;159.60;;;;;;;-2.24;78.35;98248.53;123823;1102;64956;-80
2021/03/16 04:01:41;;;;;;;280.63;148.47;;;;;;;-2.26;78.12;98258.17;123790;1102;65292;-81
2021/03/16 04:04:07;;;;;;;269.35;142.50;;;;;;;-2.26;78.22;98253.81;123778;1102;64832;-80
2021/03/16 04:06:36;;;;;;;262.57;139.13;;;;;;;-2.22;78.23;98255.42;123857;1102;64827;-81
2021/03/16 04:09:04;;;;;;;262.80;143.07;;;;;;;-2.22;77.72;98247.59;123496;1102;64985;-81
2021/03/16 04:11:30;;;;;;;286.93;146.60;;;;;;;-2.22;77.71;98251.95;123846;1102;65074;-82
2021/03/16 04:13:57;;;;;;;278.40;146.07;;;;;;;-2.21;77.99;98248.47;123462;1102;64918;-81
2021/03/16 04:16:25;;;;;;;285.80;151.07;;;;;;;-2.22;78.17;98244.98;123764;1102;64905;-82
2021/03/16 04:18:53;;;;;;;271.45;145.05;;;;;;;-2.24;77.23;98254.63;123848;1102;65014;-82
2021/03/16 04:21:20;;;;;;;280.43;148.30;;;;;;;-2.23;78.06;98258.09;123839;1102;64905;-81
2021/03/16 04:23:47;;;;;;;282.40;148.03;;;;;;;-2.21;77.23;98251.93;123830;1102;65585;-82
2021/03/16 04:26:13;;;;;;;283.27;146.47;;;;;;;-2.18;77.77;98260.58;123468;1102;64975;-80
2021/03/16 04:28:39;;;;;;;283.57;149.23;;;;;;;-2.25;76.98;98257.27;123826;1102;64905;-81
2021/03/16 04:31:06;;;;;;;296.27;151.30;;;;;;;-2.24;77.98;98264.19;123827;1102;64909;-80
2021/03/16 04:33:32;;;;;;;290.23;148.70;;;;;;;-2.18;78.01;98263.19;123832;1102;64888;-81
2021/03/16 04:35:58;;;;;;;280.73;149.40;;;;;;;-2.15;77.23;98268.33;123713;1102;65013;-81
2021/03/16 04:38:25;;;;;;;297.27;150.97;;;;;;;-2.11;78.20;98265.56;123850;1102;65029;-82
2021/03/16 04:40:51;;;;;;;290.70;156.77;;;;;;;-2.02;78.02;98262.70;123845;1102;64905;-81
2021/03/16 04:43:18;;;;;;;294.97;157.53;;;;;;;-1.95;77.93;98278.19;123917;1102;64834;-81
2021/03/16 04:45:44;;;;;;;284.03;156.53;;;;;;;-1.88;78.29;98274.52;123880;1100;64936;-81
2021/03/16 04:48:10;;;;;;;284.67;155.13;;;;;;;-1.82;77.64;98272.60;123827;1102;64834;-82
2021/03/16 04:50:37;;;;;;;291.00;160.80;;;;;;;-1.77;78.52;98278.52;123470;1102;64916;-83
2021/03/16 04:53:03;;;;;;;265.63;148.37;;;;;;;-1.70;78.23;98278.36;123836;1102;64905;-82
2021/03/16 04:55:30;;;;;;;291.80;155.60;;;;;;;-1.64;77.69;98276.41;123821;1102;64937;-81
2021/03/16 04:57:58;;;;;;;282.07;149.13;;;;;;;-1.61;77.87;98276.31;123838;1102;64885;-81
2021/03/16 05:00:25;;;;;;;287.50;148.93;;;;;;;-1.62;78.02;98279.84;123441;1102;65061;-82
2021/03/16 05:02:51;;;;;;;280.23;151.70;;;;;;;-1.61;77.23;98280.69;123861;1102;65346;-81
2021/03/16 05:05:17;;;;;;;275.70;151.03;;;;;;;-1.61;77.61;98280.69;123780;1102;65301;-81
2021/03/16 05:07:44;;;;;;;278.00;153.13;;;;;;;-1.57;77.08;98277.09;123813;1102;64889;-82
2021/03/16 05:10:11;;;;;;;282.50;153.85;;;;;;;-1.58;77.93;98284.09;123793;1102;64901;-81
2021/03/16 05:12:38;;;;;;;286.10;154.12;;;;;;;-1.61;77.97;98291.98;123789;1102;64885;-81
2021/03/16 05:15:06;;;;;;;276.63;155.93;;;;;;;-1.60;77.99;98295.48;123862;1102;64956;-81
2021/03/16 05:17:33;;;;;;;269.67;154.80;;;;;;;-1.51;78.39;98289.13;123809;1102;64942;-81
2021/03/16 05:19:59;;;;;;;284.97;154.63;;;;;;;-1.37;78.34;98287.82;123856;1102;64885;-81
2021/03/16 05:22:26;;;;;;;275.07;157.70;;;;;;;-1.25;77.94;98288.34;123800;1102;64987;-81
2021/03/16 05:24:52;;;;;;;269.53;156.90;;;;;;;-1.16;78.21;98291.53;123441;1102;64946;-81
2021/03/16 05:27:19;;;;;;;285.50;162.33;;;;;;;-1.04;78.11;98300.74;123802;1102;64915;-82
2021/03/16 05:29:45;;;;;;;273.73;155.53;;;;;;;-0.93;77.96;98300.40;123505;1102;64947;-80
2021/03/16 05:32:11;;;;;;;277.95;160.95;;;;;;;-0.78;77.85;98299.06;123793;1102;64963;-81
2021/03/16 05:34:37;;;;;;;269.07;150.33;;;;;;;-0.60;77.64;98300.23;123797;1102;64889;-81
2021/03/16 05:37:04;;;;;;;280.43;160.97;;;;;;;-0.45;77.53;98290.10;123829;1102;64931;-81
2021/03/16 05:39:30;;;;;;;256.33;148.30;;;;;;;-0.28;77.05;98294.75;123559;1102;65035;-82
2021/03/16 05:41:57;;;;;;;227.93;135.83;;;;;;;-0.10;77.16;98282.78;123764;1102;65422;-82
2021/03/16 05:44:24;;;;;;;246.45;142.05;;;;;;;0.03;77.08;98287.56;123814;1101;64965;-81
2021/03/16 05:46:51;;;;;;;218.17;122.60;;;;;;;0.11;77.16;98294.26;123792;1102;64910;-81
2021/03/16 05:49:20;;;;;;;210.33;123.20;;;;;;;0.12;77.37;98293.34;123812;1102;64939;-82
2021/03/16 05:51:47;;;;;;;212.03;127.13;;;;;;;0.15;77.12;98293.22;123775;1102;64905;-82
2021/03/16 05:54:16;;;;;;;183.73;107.33;;;;;;;0.23;77.52;98299.95;123828;1102;64955;-82
2021/03/16 05:56:43;;;;;;;183.85;103.22;;;;;;;0.31;77.39;98298.76;123820;1102;64908;-82
2021/03/16 05:59:10;;;;;;;162.37;98.17;;;;;;;0.36;77.62;98304.69;123773;1102;64898;-82
2021/03/16 06:01:37;;;;;;;167.00;99.00;;;;;;;0.47;76.85;98304.28;123800;1102;65025;-82
2021/03/16 06:04:03;;;;;;;168.13;99.27;;;;;;;0.59;76.91;98305.61;123783;1102;64902;-82
2021/03/16 06:06:31;;;;;;;159.00;94.57;;;;;;;0.70;77.45;98307.83;123846;1102;64933;-82
2021/03/16 06:08:58;;;;;;;146.27;89.20;;;;;;;0.70;77.69;98319.16;123780;1102;64781;-82
2021/03/16 06:11:25;;;;;;;146.60;86.33;;;;;;;0.74;77.52;98330.38;123868;1100;64894;-82
2021/03/16 06:13:56;;;;;;;128.40;76.25;;;;;;;0.81;77.04;98330.09;123772;1102;65327;-81
2021/03/16 06:16:23;;;;;;;142.27;83.47;;;;;;;0.90;77.66;98333.30;123467;1102;64896;-81
2021/03/16 06:18:50;;;;;;;129.73;80.37;;;;;;;0.99;77.40;98338.18;123863;1102;64905;-81
2021/03/16 06:21:22;;;;;;;146.03;84.63;;;;;;;1.05;76.85;98338.81;123810;1102;64905;-82
2021/03/16 06:23:52;;;;;;;133.03;82.33;;;;;;;1.16;77.13;98350.62;123924;1102;64889;-82
2021/03/16 06:26:19;;;;;;;124.27;75.27;;;;;;;1.16;77.00;98343.63;123798;1102;64831;-82
2021/03/16 06:28:46;;;;;;;108.65;71.20;;;;;;;1.21;77.29;98344.31;123843;1102;64927;-82
2021/03/16 06:31:25;;;;;;;98.37;61.10;;;;;;;1.21;77.04;98346.94;123789;1102;64942;-81
2021/03/16 06:33:51;;;;;;;102.03;59.90;;;;;;;1.24;77.78;98352.05;123815;1102;64882;-81
2021/03/16 06:36:22;;;;;;;101.77;60.50;;;;;;;1.27;77.45;98361.58;123472;1102;64914;-82
2021/03/16 06:38:49;;;;;;;106.35;66.25;;;;;;;1.35;77.33;98358.66;123799;1102;65042;-81
2021/03/16 06:41:18;;;;;;;101.57;62.57;;;;;;;1.40;77.15;98364.58;123827;1101;64908;-81
2021/03/16 06:44:15;;;;;;;100.80;64.10;;;;;;;1.44;77.34;98368.77;123864;1102;65317;-81
2021/03/16 06:46:42;;;;;;;94.13;58.53;;;;;;;1.49;77.83;98366.81;123813;1102;64894;-82
2021/03/16 06:49:13;;;;;;;100.40;59.10;;;;;;;1.53;77.79;98364.02;123476;1105;64908;-82
2021/03/16 06:51:40;;;;;;;90.67;56.53;;;;;;;1.61;77.50;98363.70;123809;1102;64828;-82
2021/03/16 06:54:15;;;;;;;97.77;60.30;;;;;;;1.67;77.09;98373.95;123481;1102;65017;-83
2021/03/16 06:56:56;;;;;;;93.30;61.90;;;;;;;1.71;77.71;98369.41;123890;1101;64875;-82
2021/03/16 06:59:25;;;;;;;103.00;65.63;;;;;;;1.75;77.12;98377.11;123512;1103;64962;-82
2021/03/16 07:01:52;;;;;;;107.00;67.43;;;;;;;1.86;76.95;98376.66;123850;1102;65359;-82
2021/03/16 07:04:24;;;;;;;119.07;73.67;;;;;;;2.01;76.71;98372.55;123800;1102;64969;-82
2021/03/16 07:06:51;;;;;;;119.13;72.67;;;;;;;2.20;77.12;98372.62;123536;1102;65059;-83
2021/03/16 07:09:20;;;;;;;111.37;69.50;;;;;;;2.37;76.51;98366.61;123461;1102;64988;-83
2021/03/16 07:11:51;;;;;;;107.63;64.67;;;;;;;2.54;76.54;98365.89;123802;1102;64889;-83
2021/03/16 07:14:20;;;;;;;99.30;62.20;;;;;;;2.85;76.67;98382.00;123854;1102;64889;-82
2021/03/16 07:16:53;;;;;;;104.13;65.00;;;;;;;3.03;76.17;98375.05;123844;1102;64985;-82
2021/03/16 07:19:23;;;;;;;104.10;64.83;;;;;;;3.20;76.19;98383.92;123834;1102;64894;-82
2021/03/16 07:21:54;;;;;;;113.37;69.20;;;;;;;3.24;76.52;98391.62;123863;1102;64905;-82
2021/03/16 07:24:27;;;;;;;114.30;71.87;;;;;;;3.25;75.87;98392.47;123513;1102;64895;-82
2021/03/16 07:26:56;;;;;;;102.93;69.13;;;;;;;3.28;76.07;98398.43;123433;1102;65342;-82
2021/03/16 07:29:22;;;;;;;104.45;67.55;;;;;;;3.30;76.07;98388.69;123906;1102;65068;-83
2021/03/16 07:31:50;;;;;;;106.23;63.73;;;;;;;3.38;76.30;98388.33;123854;1101;64999;-83
2021/03/16 07:34:21;;;;;;;96.53;61.00;;;;;;;3.46;75.92;98395.87;123862;1101;64879;-83
2021/03/16 07:36:49;;;;;;;95.17;60.30;;;;;;;3.55;75.44;98392.77;123486;1102;64889;-82
2021/03/16 07:39:19;;;;;;;94.73;60.97;;;;;;;3.66;75.43;98398.41;123860;1101;64880;-83
2021/03/16 07:41:48;;;;;;;102.07;65.47;;;;;;;3.88;75.33;98394.71;123492;1102;65004;-81
2021/03/16 07:44:17;;;;;;;96.23;65.30;;;;;;;4.06;75.29;98403.49;123534;1102;64997;-81
2021/03/16 07:46:51;;;;;;;96.67;62.33;;;;;;;4.22;74.75;98403.58;123858;1102;64882;-82
2021/03/16 07:49:39;;;;;;;92.13;61.67;;;;;;;4.33;74.42;98401.23;123897;1102;64912;-82
2021/03/16 07:52:22;;;;;;;93.00;60.73;;;;;;;4.46;74.33;98401.47;123847;1101;64889;-82
2021/03/16 07:54:56;;;;;;;83.20;53.45;;;;;;;4.61;74.06;98396.25;123827;1102;64902;-81
2021/03/16 07:57:30;;;;;;;82.80;54.57;;;;;;;4.73;74.23;98405.29;123803;1102;64905;-82
2021/03/16 08:00:03;;;;;;;85.67;55.50;;;;;;;4.80;73.61;98405.83;123806;1102;64899;-83
2021/03/16 08:02:32;;;;;;;88.23;60.10;;;;;;;4.86;73.49;98410.78;123926;1102;64860;-83
2021/03/16 08:04:59;;;;;;;85.93;55.67;;;;;;;4.95;73.25;98409.42;123818;1102;64908;-83
2021/03/16 08:07:30;;;;;;;85.43;55.63;;;;;;;5.07;73.45;98408.78;123781;1102;65040;-83
2021/03/16 08:09:58;;;;;;;90.10;58.60;;;;;;;5.16;73.38;98408.30;123845;1102;64905;-83
2021/03/16 08:12:25;;;;;;;86.20;55.75;;;;;;;5.21;72.95;98411.55;123770;1102;64902;-83
2021/03/16 08:14:53;;;;;;;88.33;57.30;;;;;;;5.18;73.10;98418.76;123771;1102;65237;-82
2021/03/16 08:17:34;;;;;;;85.67;55.23;;;;;;;5.03;72.98;98413.38;123486;1102;64882;-82
2021/03/16 08:20:02;;;;;;;79.73;53.30;;;;;;;4.96;72.97;98427.84;123816;1102;65036;-82
2021/03/16 08:22:29;;;;;;;80.43;50.80;;;;;;;4.84;72.51;98421.44;123855;1102;66475;-83
2021/03/16 08:25:06;;;;;;;83.37;56.60;;;;;;;4.70;72.41;98423.08;123909;1102;64911;-83
2021/03/16 08:27:34;;;;;;;86.30;59.93;;;;;;;4.73;72.89;98418.48;123855;1102;64872;-83
2021/03/16 08:30:06;;;;;;;84.27;55.03;;;;;;;4.83;72.83;98427.63;123478;1102;64911;-83
2021/03/16 08:32:35;;;;;;;87.33;56.97;;;;;;;4.93;72.83;98430.65;123850;1102;65345;-82
2021/03/16 08:35:02;;;;;;;84.43;57.23;;;;;;;5.02;72.57;98431.94;123836;1102;65020;-82
2021/03/16 08:37:33;;;;;;;93.60;60.23;;;;;;;5.06;72.67;98431.70;123477;1102;64914;-82
2021/03/16 08:40:00;;;;;;;91.90;60.73;;;;;;;5.05;72.85;98434.41;123828;1102;64831;-82
2021/03/16 08:42:28;;;;;;;76.33;52.53;;;;;;;5.06;72.53;98429.06;123815;1102;64889;-82
2021/03/16 08:44:56;;;;;;;79.20;52.63;;;;;;;5.14;72.84;98430.45;123823;1102;64949;-82
2021/03/16 08:47:27;;;;;;;78.00;51.00;;;;;;;5.18;72.42;98430.17;123445;1102;64966;-83
2021/03/16 08:49:56;;;;;;;81.73;56.67;;;;;;;5.17;72.78;98427.63;123752;1102;64911;-82
2021/03/16 08:52:29;;;;;;;84.37;56.30;;;;;;;5.05;72.39;98429.13;123918;1101;64905;-82
2021/03/16 08:54:58;;;;;;;88.07;61.17;;;;;;;4.97;72.31;98432.17;123811;1102;64873;-82
2021/03/16 08:57:29;;;;;;;80.23;54.83;;;;;;;4.93;72.45;98437.72;123801;1102;64944;-83
2021/03/16 08:59:58;;;;;;;89.13;60.27;;;;;;;4.97;72.37;98426.89;123893;1102;65036;-82
2021/03/16 09:02:28;;;;;;;79.67;55.47;;;;;;;5.14;72.27;98428.65;123855;1101;65013;-82
2021/03/16 09:04:56;;;;;;;80.10;55.67;;;;;;;5.25;72.04;98433.34;123818;1102;64844;-82
2021/03/16 09:07:30;;;;;;;123.00;72.97;;;;;;;5.34;71.83;98435.47;123833;1102;64899;-83
2021/03/16 09:10:04;;;;;;;86.53;62.00;;;;;;;5.40;72.35;98427.23;123826;1102;65081;-83
2021/03/16 09:12:32;;;;;;;87.70;59.30;;;;;;;5.43;72.21;98434.14;123834;1102;65007;-83
2021/03/16 09:15:26;;;;;;;90.20;61.33;;;;;;;5.40;72.22;98439.59;123852;1102;64889;-81
2021/03/16 09:17:55;;;;;;;88.27;58.20;;;;;;;5.41;72.00;98428.92;123852;1102;64937;-81
2021/03/16 09:20:27;;;;;;;82.13;57.60;;;;;;;5.43;71.98;98434.98;123822;1102;64892;-82
2021/03/16 09:23:06;;;;;;;89.90;60.10;;;;;;;5.58;72.40;98429.78;123837;1102;64870;-82
2021/03/16 09:25:35;;;;;;;84.25;56.15;;;;;;;5.70;71.50;98426.45;123854;1102;65030;-83
2021/03/16 09:28:04;;;;;;;78.13;54.33;;;;;;;5.71;71.32;98438.72;123791;1102;64905;-82
2021/03/16 09:30:44;;;;;;;88.50;58.07;;;;;;;5.76;71.73;98433.19;123905;1102;64767;-82
2021/03/16 09:33:16;;;;;;;85.70;56.77;;;;;;;5.88;71.49;98432.50;123517;1102;64969;-82
2021/03/16 09:43:26;;;;;;;76.10;52.00;;;;;;;6.29;70.72;98443.39;123832;1101;64828;-82
2021/03/16 09:45:56;;;;;;;84.10;53.50;;;;;;;6.42;70.21;98443.49;123810;1102;64910;-82
2021/03/16 09:52:10;;;;;;;80.23;55.70;;;;;;;6.33;69.89;98444.89;123801;1102;65039;-83
2021/03/16 09:54:39;;;;;;;80.33;54.47;;;;;;;6.31;69.72;98449.42;123921;1102;64950;-82
2021/03/16 09:57:08;;;;;;;82.67;55.33;;;;;;;6.32;69.85;98458.23;123781;1102;64963;-82
2021/03/16 10:09:42;;;;;;;66.77;47.07;;;;;;;7.19;68.23;98455.63;123782;1102;65273;-83
2021/03/16 10:12:26;;;;;;;64.03;45.53;;;;;;;7.41;68.35;98454.30;123804;1102;64892;-80
2021/03/16 10:14:53;;;;;;;54.80;42.03;;;;;;;7.56;68.07;98447.18;123493;1102;65145;-81
2021/03/16 10:17:26;;;;;;;61.00;42.73;;;;;;;7.59;67.76;98445.17;123842;1101;64931;-82
2021/03/16 10:19:55;;;;;;;62.83;42.97;;;;;;;7.59;67.97;98453.13;123434;1102;65062;-83
2021/03/16 10:26:06;;;;;;;69.00;46.93;;;;;;;7.26;68.18;98459.58;123837;1102;64892;-83
2021/03/16 10:28:37;;;;;;;68.23;45.23;;;;;;;7.09;67.22;98451.84;123844;1102;64917;-83
2021/03/16 10:31:19;;;;;;;67.57;48.83;;;;;;;6.93;68.19;98451.92;123473;1102;64905;-82
2021/03/16 10:33:48;;;;;;;62.00;44.90;;;;;;;6.86;67.79;98455.04;123826;1102;64908;-82
2021/03/16 10:36:15;;;;;;;73.60;50.83;;;;;;;6.81;68.18;98450.86;123857;1102;64867;-84
2021/03/16 10:38:42;;;;;;;76.77;52.43;;;;;;;6.79;67.86;98462.48;123470;1102;64883;-83
2021/03/16 10:41:08;;;;;;;80.10;54.50;;;;;;;6.67;68.29;98453.49;123425;1102;64837;-83
2021/03/16 10:43:35;;;;;;;79.30;55.20;;;;;;;6.52;68.51;98455.25;123462;1103;64889;-82
2021/03/16 10:46:01;;;;;;;82.07;56.30;;;;;;;6.37;68.64;98456.14;123821;1102;64946;-83
2021/03/16 10:48:27;;;;;;;80.70;56.23;;;;;;;6.25;68.83;98454.23;123457;1102;65083;-83
2021/03/16 10:50:54;;;;;;;89.67;57.87;;;;;;;6.16;69.26;98466.17;123857;1102;64893;-83
2021/03/16 10:53:20;;;;;;;86.00;56.95;;;;;;;6.06;69.33;98471.16;123825;1102;64867;-83
2021/03/16 10:55:46;;;;;;;85.65;55.90;;;;;;;6.00;69.60;98465.35;123459;1102;64926;-83
2021/03/16 10:58:13;;;;;;;72.47;51.23;;;;;;;5.96;69.65;98469.98;123482;1102;64866;-82
2021/03/16 11:00:39;;;;;;;71.30;48.40;;;;;;;5.89;69.51;98465.93;123527;1102;65022;-83
2021/03/16 11:03:06;;;;;;;77.60;52.35;;;;;;;5.86;69.68;98468.75;123783;1102;64902;-83
2021/03/16 11:05:34;;;;;;;74.33;51.10;;;;;;;5.85;69.91;98469.70;123793;1102;64905;-83
2021/03/16 11:08:00;;;;;;;80.73;53.40;;;;;;;5.82;69.97;98470.73;123842;1102;64899;-83
2021/03/16 11:10:27;;;;;;;83.60;54.00;;;;;;;5.81;70.04;98476.09;123731;1102;65017;-83
2021/03/16 11:12:54;;;;;;;71.57;48.53;;;;;;;5.76;70.13;98472.84;123469;1103;64889;-83
2021/03/16 11:15:21;;;;;;;76.90;53.27;;;;;;;5.67;70.48;98469.78;123419;1102;64905;-83
2021/03/16 11:17:48;;;;;;;77.70;53.30;;;;;;;5.56;70.67;98482.74;123464;1102;65348;-83
2021/03/16 11:20:15;;;;;;;83.63;54.53;;;;;;;5.49;70.78;98473.44;123802;1101;64991;-83
2021/03/16 11:22:41;;;;;;;83.23;55.73;;;;;;;5.44;70.69;98473.67;123774;1102;64931;-83
2021/03/16 11:25:08;;;;;;;73.67;50.63;;;;;;;5.45;70.91;98478.05;123823;1102;64968;-83
2021/03/16 11:27:35;;;;;;;74.40;50.97;;;;;;;5.45;70.81;98482.45;123462;1102;64927;-83
2021/03/16 11:30:04;;;;;;;74.33;50.80;;;;;;;5.55;70.59;98474.88;123844;1102;64923;-83
2021/03/16 11:32:33;;;;;;;74.50;48.90;;;;;;;5.63;70.58;98473.52;123809;1102;65285;-83
2021/03/16 11:34:59;;;;;;;76.07;52.00;;;;;;;5.70;70.88;98477.53;123398;1102;64915;-81
2021/03/16 11:37:26;;;;;;;81.03;55.27;;;;;;;5.79;71.11;98467.38;123767;1102;64902;-81